createdAt,value
2022-09-28T00:01:14.478Z,66.94
2022-09-28T00:03:42.289Z,67.12
2022-09-28T00:06:12.507Z,67.28
2022-09-28T00:08:40.919Z,67.36
2022-09-28T00:11:13.005Z,67.61
2022-09-28T00:13:41.709Z,67.40
2022-09-28T00:16:12.217Z,67.44
2022-09-28T00:18:39.864Z,67.29
2022-09-28T00:21:11.283Z,67.89
2022-09-28T00:24:00.033Z,67.70
2022-09-28T00:26:32.673Z,67.79
2022-09-28T00:29:02.151Z,68.13
2022-09-28T00:31:38.858Z,68.89
2022-09-28T00:34:06.368Z,68.10
2022-09-28T00:36:35.007Z,68.34
2022-09-28T00:39:07.747Z,69.08
2022-09-28T00:41:36.043Z,68.47
2022-09-28T00:44:25.260Z,69.94
2022-09-28T00:46:57.819Z,69.23
2022-09-28T00:49:56.119Z,69.80
2022-09-28T00:53:00.429Z,69.83
2022-09-28T00:55:42.908Z,69.94
2022-09-28T00:58:15.104Z,69.68
2022-09-28T01:00:42.790Z,69.54
2022-09-28T01:03:11.081Z,69.53
2022-09-28T01:05:40.546Z,69.92
2022-09-28T01:08:10.129Z,69.54
2022-09-28T01:10:40.996Z,69.84
2022-09-28T01:13:08.456Z,69.63
2022-09-28T01:15:44.544Z,70.39
2022-09-28T01:18:17.755Z,70.33
2022-09-28T01:21:05.388Z,70.81
2022-09-28T01:23:54.810Z,70.16
2022-09-28T01:26:25.287Z,70.52
2022-09-28T01:29:02.239Z,70.59
2022-09-28T01:31:34.688Z,70.66
2022-09-28T01:34:13.900Z,70.91
2022-09-28T01:36:47.046Z,70.71
2022-09-28T01:39:33.537Z,70.70
2022-09-28T01:42:08.430Z,70.59
2022-09-28T01:44:41.262Z,70.65
2022-09-28T01:47:14.604Z,70.87
2022-09-28T01:49:47.233Z,71.07
2022-09-28T01:52:20.582Z,71.23
2022-09-28T01:55:03.071Z,71.37
2022-09-28T01:57:44.627Z,71.62
2022-09-28T02:00:16.287Z,71.07
2022-09-28T02:03:16.423Z,71.73
2022-09-28T02:05:58.824Z,70.79
2022-09-28T02:08:38.227Z,71.28
2022-09-28T02:11:15.962Z,71.68
2022-09-28T02:13:52.413Z,71.55
2022-09-28T02:16:36.191Z,71.56
2022-09-28T02:19:05.555Z,71.14
2022-09-28T02:21:41.068Z,71.77
2022-09-28T02:24:21.787Z,72.24
2022-09-28T02:26:52.149Z,71.29
2022-09-28T02:29:19.667Z,71.45
2022-09-28T02:31:47.223Z,71.36
2022-09-28T02:34:14.840Z,71.48
2022-09-28T02:36:45.011Z,71.36
2022-09-28T02:39:18.000Z,71.47
2022-09-28T02:42:01.758Z,72.14
2022-09-28T02:45:09.438Z,72.30
2022-09-28T02:47:58.608Z,71.73
2022-09-28T02:50:44.118Z,72.28
2022-09-28T02:53:41.677Z,72.31
2022-09-28T02:56:30.449Z,72.56
2022-09-28T02:59:16.370Z,72.40
2022-09-28T03:02:22.297Z,72.43
2022-09-28T03:05:10.835Z,72.24
2022-09-28T03:08:01.181Z,72.19
2022-09-28T03:11:01.117Z,72.54
2022-09-28T03:13:29.331Z,72.12
2022-09-28T03:16:27.685Z,72.83
2022-09-28T03:18:55.186Z,72.04
2022-09-28T03:21:22.781Z,71.99
2022-09-28T03:23:50.218Z,72.39
2022-09-28T03:26:18.137Z,72.15
2022-09-28T03:28:45.625Z,72.20
2022-09-28T03:31:18.785Z,72.28
2022-09-28T03:33:46.616Z,72.14
2022-09-28T03:36:15.321Z,72.16
2022-09-28T03:38:43.070Z,72.37
2022-09-28T03:41:11.689Z,72.21
2022-09-28T03:43:42.702Z,72.20
2022-09-28T03:46:10.850Z,72.07
2022-09-28T03:48:43.539Z,72.21
2022-09-28T03:51:12.920Z,72.26
2022-09-28T03:53:40.811Z,72.29
2022-09-28T03:56:12.655Z,72.27
2022-09-28T03:58:40.769Z,72.37
2022-09-28T04:01:16.388Z,72.56
2022-09-28T04:03:46.698Z,72.44
2022-09-28T04:06:14.865Z,72.33
2022-09-28T04:08:43.554Z,72.47
2022-09-28T04:11:11.869Z,72.47
2022-09-28T04:13:39.581Z,72.42
2022-09-28T04:16:11.281Z,72.50
2022-09-28T04:18:40.116Z,72.29
2022-09-28T04:21:16.588Z,72.25
2022-09-28T04:23:47.747Z,72.21
2022-09-28T04:26:21.726Z,72.46
2022-09-28T04:29:08.572Z,72.56
2022-09-28T04:31:49.790Z,72.90
2022-09-28T04:34:20.462Z,72.26
2022-09-28T04:36:48.764Z,72.35
2022-09-28T04:39:17.836Z,72.29
2022-09-28T04:41:49.298Z,72.18
2022-09-28T04:44:17.234Z,71.99
2022-09-28T04:46:47.245Z,71.95
2022-09-28T04:49:38.547Z,71.94
2022-09-28T04:52:17.199Z,71.87
2022-09-28T04:54:45.971Z,71.79
2022-09-28T04:57:13.443Z,71.49
2022-09-28T04:59:41.830Z,71.64
2022-09-28T05:02:09.481Z,71.53
2022-09-28T05:04:56.560Z,71.27
2022-09-28T05:07:42.707Z,71.19
2022-09-28T05:10:11.781Z,71.40
2022-09-28T05:12:40.324Z,71.43
2022-09-28T05:15:08.328Z,71.56
2022-09-28T05:17:35.815Z,71.49
2022-09-28T05:20:29.563Z,71.50
2022-09-28T05:22:57.472Z,71.52
2022-09-28T05:25:26.539Z,71.52
2022-09-28T05:28:03.611Z,71.51
2022-09-28T05:31:09.217Z,71.76
2022-09-28T05:33:56.407Z,71.89
2022-09-28T05:36:27.986Z,72.19
2022-09-28T05:38:55.639Z,71.93
2022-09-28T05:41:23.392Z,71.98
2022-09-28T05:43:52.373Z,72.08
2022-09-28T05:46:21.344Z,72.41
2022-09-28T05:48:51.288Z,72.29
2022-09-28T05:51:19.357Z,72.07
2022-09-28T05:53:47.311Z,72.13
2022-09-28T05:56:17.684Z,72.23
2022-09-28T05:58:46.000Z,72.37
2022-09-28T06:01:14.688Z,72.24
2022-09-28T06:03:42.291Z,72.36
2022-09-28T06:06:09.799Z,72.41
2022-09-28T06:08:38.830Z,72.41
2022-09-28T06:11:35.727Z,72.38
2022-09-28T06:14:09.956Z,72.14
2022-09-28T06:16:42.999Z,71.99
2022-09-28T06:19:12.447Z,71.41
2022-09-28T06:22:12.323Z,71.38
2022-09-28T06:24:46.900Z,71.38
2022-09-28T06:27:14.464Z,71.33
2022-09-28T06:29:42.771Z,71.21
2022-09-28T06:32:10.994Z,71.09
2022-09-28T06:34:39.454Z,71.13
2022-09-28T06:37:06.867Z,71.00
2022-09-28T06:39:35.050Z,70.71
2022-09-28T06:42:03.969Z,70.88
2022-09-28T06:44:52.125Z,70.99
2022-09-28T06:47:33.862Z,70.53
2022-09-28T06:50:17.419Z,70.54
2022-09-28T06:53:13.798Z,70.37
2022-09-28T06:55:50.189Z,70.23
2022-09-28T06:58:20.834Z,70.20
2022-09-28T07:00:51.384Z,70.52
2022-09-28T07:03:23.057Z,71.06
2022-09-28T07:06:12.334Z,70.61
2022-09-28T07:09:14.683Z,70.17
2022-09-28T07:12:06.161Z,70.15
2022-09-28T07:14:48.428Z,70.01
2022-09-28T07:17:16.854Z,70.33
2022-09-28T07:19:44.631Z,69.97
2022-09-28T07:22:18.414Z,70.13
2022-09-28T07:24:48.715Z,69.96
2022-09-28T07:27:42.365Z,69.84
2022-09-28T07:30:35.314Z,69.70
2022-09-28T07:33:19.649Z,69.64
2022-09-28T07:35:55.759Z,69.49
2022-09-28T07:38:27.926Z,69.68
2022-09-28T07:41:21.758Z,69.76
2022-09-28T07:43:51.460Z,69.49
2022-09-28T07:46:21.357Z,69.39
2022-09-28T07:48:56.153Z,69.51
2022-09-28T07:51:44.882Z,69.45
2022-09-28T07:54:18.562Z,69.40
2022-09-28T07:57:07.215Z,69.02
2022-09-28T07:59:49.874Z,69.01
2022-09-28T08:02:37.358Z,68.76
2022-09-28T08:05:05.615Z,68.71
2022-09-28T08:07:34.511Z,68.68
2022-09-28T08:10:08.282Z,68.66
2022-09-28T08:12:47.319Z,68.62
2022-09-28T08:15:38.301Z,68.72
2022-09-28T08:18:28.540Z,68.38
2022-09-28T08:21:14.428Z,68.51
2022-09-28T08:23:42.228Z,68.49
2022-09-28T08:26:14.613Z,68.32
2022-09-28T08:28:45.210Z,68.24
2022-09-28T08:31:41.726Z,68.33
2022-09-28T08:34:20.812Z,67.68
2022-09-28T08:37:15.411Z,67.35
2022-09-28T08:40:01.231Z,67.32
2022-09-28T08:42:44.995Z,67.31
2022-09-28T08:45:23.395Z,67.25
2022-09-28T08:48:52.262Z,67.13
2022-09-28T08:52:10.761Z,67.12
2022-09-28T08:55:11.906Z,66.53
2022-09-28T08:57:57.135Z,66.56
2022-09-28T09:00:42.183Z,66.38
2022-09-28T09:03:14.351Z,66.48
2022-09-28T09:06:18.155Z,65.80
2022-09-28T09:09:09.555Z,65.93
2022-09-28T09:12:14.008Z,65.88
2022-09-28T09:14:53.118Z,65.51
2022-09-28T09:17:29.637Z,65.43
2022-09-28T09:20:19.086Z,65.62
2022-09-28T09:23:01.727Z,65.74
2022-09-28T09:25:40.872Z,65.80
2022-09-28T09:28:48.366Z,65.61
2022-09-28T09:31:42.969Z,65.90
2022-09-28T09:34:32.366Z,66.05
2022-09-28T09:37:56.526Z,66.10
2022-09-28T09:40:57.455Z,65.74
2022-09-28T09:43:59.974Z,66.26
2022-09-28T09:46:49.917Z,65.72
2022-09-28T09:49:34.763Z,66.16
2022-09-28T09:52:05.272Z,66.03
2022-09-28T09:54:50.255Z,66.33
2022-09-28T09:57:41.323Z,66.04
2022-09-28T10:00:29.233Z,65.99
2022-09-28T10:03:28.803Z,66.29
2022-09-28T10:06:12.931Z,66.52
2022-09-28T10:08:46.151Z,66.17
2022-09-28T10:11:38.633Z,66.12
2022-09-28T10:14:15.963Z,66.30
2022-09-28T10:16:50.051Z,66.47
2022-09-28T10:19:37.556Z,66.59
2022-09-28T10:22:31.572Z,66.92
2022-09-28T10:25:01.603Z,66.90
2022-09-28T10:27:34.102Z,67.01
2022-09-28T10:30:25.732Z,67.53
2022-09-28T10:32:59.314Z,67.17
2022-09-28T10:35:42.192Z,67.61
2022-09-28T10:38:17.546Z,67.56
2022-09-28T10:40:58.575Z,67.45
2022-09-28T10:44:06.384Z,68.07
2022-09-28T10:46:43.895Z,67.38
2022-09-28T10:49:20.272Z,67.34
2022-09-28T10:51:58.836Z,67.27
2022-09-28T10:54:31.847Z,67.06
2022-09-28T10:57:00.715Z,67.36
2022-09-28T10:59:42.235Z,67.31
2022-09-28T11:02:34.777Z,67.16
2022-09-28T11:05:27.932Z,66.91
2022-09-28T11:08:06.584Z,66.98
2022-09-28T11:10:42.003Z,66.89
2022-09-28T11:13:14.340Z,66.98
2022-09-28T11:15:46.934Z,67.07
2022-09-28T11:18:32.679Z,67.07
2022-09-28T11:21:12.131Z,67.14
2022-09-28T11:24:07.554Z,67.26
2022-09-28T11:26:56.623Z,66.96
2022-09-28T11:29:43.134Z,66.76
2022-09-28T11:32:25.767Z,66.87
2022-09-28T11:35:32.493Z,66.69
2022-09-28T11:38:24.954Z,67.02
2022-09-28T11:41:15.022Z,67.34
2022-09-28T11:43:53.343Z,67.39
2022-09-28T11:46:21.013Z,67.08
2022-09-28T11:49:07.416Z,67.08
2022-09-28T11:51:40.307Z,66.93
2022-09-28T11:54:33.741Z,66.87
2022-09-28T11:57:05.259Z,66.66
2022-09-28T11:59:38.983Z,66.67
2022-09-28T12:02:20.704Z,66.56
2022-09-28T12:05:01.902Z,66.38
2022-09-28T12:07:46.264Z,66.61
2022-09-28T12:10:37.230Z,66.17
2022-09-28T12:13:22.560Z,66.55
2022-09-28T12:19:33.737Z,66.22
2022-09-28T12:22:05.365Z,65.87
2022-09-28T12:24:59.823Z,65.90
2022-09-28T12:27:31.541Z,65.64
2022-09-28T12:30:19.424Z,65.56
2022-09-28T12:32:49.905Z,65.49
2022-09-28T12:35:45.844Z,65.32
2022-09-28T12:38:25.587Z,65.61
2022-09-28T12:41:05.158Z,65.25
2022-09-28T12:43:41.764Z,65.44
2022-09-28T12:46:48.965Z,65.40
2022-09-28T12:50:33.310Z,64.91
2022-09-28T12:52:21.343Z,65.18
2022-09-28T12:57:51.676Z,65.17
2022-09-28T13:00:25.262Z,65.01
2022-09-28T13:03:22.758Z,65.04
2022-09-28T13:05:56.275Z,64.74
2022-09-28T13:08:43.523Z,64.90
2022-09-28T13:11:49.746Z,64.65
2022-09-28T13:14:41.994Z,64.53
2022-09-28T13:17:38.854Z,64.35
2022-09-28T13:20:27.629Z,64.24
2022-09-28T13:23:03.083Z,63.94
2022-09-28T13:25:36.234Z,64.06
2022-09-28T13:28:07.045Z,64.08
2022-09-28T13:30:38.995Z,63.85
2022-09-28T13:33:10.770Z,64.01
2022-09-28T13:35:44.031Z,64.04
2022-09-28T13:38:17.769Z,64.03
2022-09-28T13:41:03.763Z,64.14
2022-09-28T13:44:08.485Z,63.94
2022-09-28T13:46:41.416Z,63.83
2022-09-28T13:49:17.646Z,64.38
2022-09-28T13:51:57.032Z,64.55
2022-09-28T13:54:24.424Z,64.58
2022-09-28T13:57:10.092Z,64.74
2022-09-28T13:59:54.123Z,65.02
2022-09-28T14:02:27.522Z,64.88
2022-09-28T14:05:26.066Z,64.91
2022-09-28T14:08:08.654Z,64.80
2022-09-28T14:11:19.410Z,64.82
2022-09-28T14:14:08.541Z,65.15
2022-09-28T14:16:36.995Z,65.10
2022-09-28T14:19:29.893Z,65.60
2022-09-28T14:22:36.902Z,65.85
2022-09-28T14:25:23.661Z,65.85
2022-09-28T14:27:51.430Z,65.89
2022-09-28T14:30:25.798Z,66.41
2022-09-28T14:32:59.155Z,66.13
2022-09-28T14:35:26.608Z,66.08
2022-09-28T14:38:20.966Z,66.74
2022-09-28T14:41:14.353Z,66.90
2022-09-28T14:43:44.498Z,66.84
2022-09-28T14:46:14.115Z,66.42
2022-09-28T14:48:48.041Z,66.76
2022-09-28T14:51:27.556Z,67.03
2022-09-28T14:53:56.402Z,67.03
2022-09-28T14:56:26.171Z,66.89
2022-09-28T14:58:58.658Z,66.92
2022-09-28T15:01:26.644Z,66.82
2022-09-28T15:04:02.254Z,67.26
2022-09-28T15:06:45.367Z,67.44
2022-09-28T15:09:32.736Z,67.57
2022-09-28T15:12:04.473Z,67.07
2022-09-28T15:14:43.296Z,67.45
2022-09-28T15:17:12.839Z,67.07
2022-09-28T15:19:50.239Z,67.16
2022-09-28T15:22:20.111Z,66.85
2022-09-28T15:25:01.513Z,67.28
2022-09-28T15:27:38.683Z,67.08
2022-09-28T15:30:23.217Z,67.32
2022-09-28T15:32:51.432Z,67.20
2022-09-28T15:35:25.022Z,67.13
2022-09-28T15:37:54.995Z,66.94
2022-09-28T15:40:22.615Z,66.89
2022-09-28T15:42:50.084Z,66.96
2022-09-28T15:45:26.737Z,66.86
2022-09-28T15:48:17.718Z,66.63
2022-09-28T15:51:03.726Z,66.73
2022-09-28T15:53:31.610Z,66.18
2022-09-28T15:56:09.944Z,66.09
2022-09-28T15:58:38.551Z,65.73
2022-09-28T16:01:36.693Z,65.16
2022-09-28T16:04:41.641Z,65.02
2022-09-28T16:07:27.717Z,64.60
2022-09-28T16:10:25.506Z,64.63
2022-09-28T16:12:58.890Z,64.63
2022-09-28T16:15:34.390Z,64.72
2022-09-28T16:18:22.144Z,64.47
2022-09-28T16:20:53.043Z,64.57
2022-09-28T16:23:33.269Z,64.45
2022-09-28T16:26:03.634Z,64.70
2022-09-28T16:28:36.223Z,64.71
2022-09-28T16:31:12.604Z,65.13
2022-09-28T16:33:45.214Z,64.76
2022-09-28T16:36:15.801Z,64.59
2022-09-28T16:38:47.123Z,64.77
2022-09-28T16:41:36.295Z,64.73
2022-09-28T16:44:03.764Z,64.58
2022-09-28T16:46:37.639Z,64.43
2022-09-28T16:49:06.959Z,64.33
2022-09-28T16:51:34.486Z,64.47
2022-09-28T16:54:41.606Z,64.55
2022-09-28T16:57:14.973Z,64.33
2022-09-28T16:59:43.259Z,64.37
2022-09-28T17:05:13.995Z,64.31
2022-09-28T17:07:42.562Z,64.53
2022-09-28T17:10:17.629Z,64.54
2022-09-28T17:12:45.873Z,64.50
2022-09-28T17:15:15.758Z,64.36
2022-09-28T17:17:43.286Z,64.45
2022-09-28T17:20:29.852Z,64.64
2022-09-28T17:22:57.669Z,64.38
2022-09-28T17:25:26.707Z,64.31
2022-09-28T17:27:57.334Z,64.60
2022-09-28T17:30:25.841Z,64.66
2022-09-28T17:32:53.391Z,64.87
2022-09-28T17:35:25.436Z,65.03
2022-09-28T17:37:53.482Z,65.29
2022-09-28T17:40:28.370Z,65.80
2022-09-28T17:42:57.672Z,65.54
2022-09-28T17:45:31.387Z,65.71
2022-09-28T17:47:59.909Z,65.95
2022-09-28T17:50:32.513Z,66.24
2022-09-28T17:53:03.954Z,66.05
2022-09-28T17:55:32.769Z,66.52
2022-09-28T17:58:22.523Z,67.58
2022-09-28T18:00:51.771Z,67.07
2022-09-28T18:03:23.953Z,67.04
2022-09-28T18:06:23.057Z,68.14
2022-09-28T18:08:50.617Z,67.41
2022-09-28T18:11:18.174Z,67.66
2022-09-28T18:13:47.972Z,67.64
2022-09-28T18:16:16.118Z,67.81
2022-09-28T18:18:43.664Z,67.91
2022-09-28T18:21:11.307Z,67.91
2022-09-28T18:23:42.856Z,68.01
2022-09-28T18:26:12.632Z,68.04
2022-09-28T18:28:41.084Z,68.15
2022-09-28T18:31:10.280Z,68.22
2022-09-28T18:33:50.605Z,68.29
2022-09-28T18:36:18.107Z,68.29
2022-09-28T18:38:45.600Z,68.38
2022-09-28T18:41:15.882Z,68.55
2022-09-28T18:43:50.352Z,68.80
2022-09-28T18:46:18.702Z,68.59
2022-09-28T18:48:47.876Z,68.71
2022-09-28T18:51:15.440Z,68.74
2022-09-28T18:53:42.899Z,68.82
2022-09-28T18:56:13.077Z,68.76
2022-09-28T18:58:42.150Z,68.75
2022-09-28T19:01:35.733Z,69.26
2022-09-28T19:04:05.818Z,68.85
2022-09-28T19:06:34.530Z,68.89
2022-09-28T19:09:02.032Z,69.00
2022-09-28T19:11:29.489Z,69.07
2022-09-28T19:13:57.208Z,69.24
2022-09-28T19:16:30.071Z,69.40
2022-09-28T19:18:58.428Z,69.47
2022-09-28T19:21:26.850Z,69.44
2022-09-28T19:23:55.625Z,69.44
2022-09-28T19:26:26.195Z,69.68
2022-09-28T19:28:56.025Z,69.81
2022-09-28T19:31:24.770Z,69.88
2022-09-28T19:33:52.509Z,69.48
2022-09-28T19:36:23.604Z,69.88
2022-09-28T19:38:52.994Z,69.60
2022-09-28T19:41:44.596Z,69.80
2022-09-28T19:44:27.672Z,69.96
2022-09-28T19:47:10.039Z,69.79
2022-09-28T19:49:39.670Z,69.56
2022-09-28T19:52:16.625Z,69.85
2022-09-28T19:54:56.780Z,69.85
2022-09-28T19:57:27.629Z,69.34
2022-09-28T20:00:00.840Z,69.60
2022-09-28T20:02:35.238Z,69.44
2022-09-28T20:05:03.075Z,69.56
2022-09-28T20:07:33.068Z,69.62
2022-09-28T20:10:00.711Z,69.57
2022-09-28T20:12:28.122Z,69.64
2022-09-28T20:14:55.632Z,69.50
2022-09-28T20:17:23.055Z,69.86
2022-09-28T20:19:51.875Z,69.95
2022-09-28T20:22:20.141Z,69.92
2022-09-28T20:24:47.585Z,69.87
2022-09-28T20:27:15.116Z,70.06
2022-09-28T20:29:43.169Z,70.05
2022-09-28T20:32:12.307Z,70.03
2022-09-28T20:34:39.805Z,70.21
2022-09-28T20:37:13.768Z,70.16
2022-09-28T20:39:44.833Z,70.22
2022-09-28T20:42:14.318Z,69.99
2022-09-28T20:44:41.762Z,70.11
2022-09-28T20:47:09.249Z,70.05
2022-09-28T20:49:36.702Z,70.07
2022-09-28T20:52:04.293Z,70.08
2022-09-28T20:54:31.707Z,69.99
2022-09-28T20:56:59.158Z,70.18
2022-09-28T20:59:28.426Z,70.04
2022-09-28T21:01:55.983Z,69.91
2022-09-28T21:04:23.425Z,70.14
2022-09-28T21:06:50.843Z,69.99
2022-09-28T21:09:18.271Z,69.99
2022-09-28T21:11:46.469Z,69.99
2022-09-28T21:14:13.994Z,69.93
2022-09-28T21:16:41.522Z,70.03
2022-09-28T21:19:08.986Z,69.84
2022-09-28T21:21:36.449Z,70.18
2022-09-28T21:24:07.118Z,70.23
2022-09-28T21:26:35.187Z,70.05
2022-09-28T21:29:05.512Z,70.30
2022-09-28T21:31:41.845Z,70.45
2022-09-28T21:34:13.887Z,70.61
2022-09-28T21:36:43.458Z,70.31
2022-09-28T21:39:14.513Z,70.41
2022-09-28T21:41:42.491Z,70.52
2022-09-28T21:44:10.674Z,70.60
2022-09-28T21:46:38.841Z,70.43
2022-09-28T21:49:08.726Z,70.66
2022-09-28T21:51:36.292Z,70.59
2022-09-28T21:54:04.001Z,70.68
2022-09-28T21:56:31.434Z,70.59
2022-09-28T21:58:59.027Z,70.75
2022-09-28T22:01:29.188Z,70.64
2022-09-28T22:03:57.123Z,70.71
2022-09-28T22:06:28.163Z,70.79
2022-09-28T22:08:56.586Z,70.52
2022-09-28T22:11:27.350Z,70.78
2022-09-28T22:13:59.769Z,70.98
2022-09-28T22:16:30.442Z,70.80
2022-09-28T22:18:58.853Z,70.74
2022-09-28T22:21:32.785Z,70.84
2022-09-28T22:24:02.373Z,70.65
2022-09-28T22:26:31.912Z,70.91
2022-09-28T22:29:01.726Z,70.82
2022-09-28T22:31:32.463Z,70.87
2022-09-28T22:34:00.038Z,70.70
2022-09-28T22:36:28.263Z,70.81
2022-09-28T22:38:56.811Z,70.76
2022-09-28T22:41:25.219Z,71.03
2022-09-28T22:43:53.833Z,70.93
2022-09-28T22:46:24.397Z,70.91
2022-09-28T22:48:54.297Z,70.88
2022-09-28T22:51:22.967Z,70.76
2022-09-28T22:53:50.575Z,70.67
2022-09-28T22:56:19.167Z,70.79
2022-09-28T22:58:47.568Z,70.88
2022-09-28T23:01:21.453Z,71.14
2022-09-28T23:03:50.458Z,70.87
2022-09-28T23:06:21.332Z,70.60
2022-09-28T23:08:52.485Z,70.49
2022-09-28T23:11:22.518Z,70.37
2022-09-28T23:13:53.999Z,70.48
2022-09-28T23:16:23.619Z,70.30
2022-09-28T23:18:52.410Z,70.04
2022-09-28T23:21:24.330Z,70.16
2022-09-28T23:23:57.280Z,70.05
2022-09-28T23:26:28.145Z,70.00
2022-09-28T23:28:56.252Z,69.98
2022-09-28T23:31:26.201Z,69.82
2022-09-28T23:34:01.291Z,69.79
2022-09-28T23:36:29.450Z,69.81
2022-09-28T23:38:57.227Z,69.54
2022-09-28T23:41:31.981Z,69.90
2022-09-28T23:43:59.376Z,69.35
2022-09-28T23:46:27.008Z,69.57
2022-09-28T23:48:54.620Z,69.60
2022-09-28T23:51:22.174Z,69.57
2022-09-28T23:53:49.628Z,69.60
2022-09-28T23:56:17.193Z,69.67
2022-09-28T23:58:44.850Z,69.64
